EW4363 Olesa De Montserrat ES current weather conditions

sailwx.info

Wind from 224 at 0 knots gusting 2

Air temperature 13.9° C
Dewpoint 12.1° C

Last reported at 2020-Jan-22 15:03 UTC.
Time now 2020-Jan-22 15:56 UTC

Location: N 41°32' E 001°54'.
View on Google Maps.

See reports from other nearby stations

  
Tides and Currents Weather Stations Pressure Air Temp Water Temp Dewpoint Dewpoint Depression Visibility Wind Speed Wind Dir Waves Ship Positions
date/time (UTC)wind fromknots sea level pressurealtimeterstation pressurevisibilityair tempwater tempwave heightnotes
2020-Jan-22 15:03 224 0 gusting 2 13.9
2020-Jan-22 14:58 150 1 gusting 6 13.9
2020-Jan-22 14:53 180 1 gusting 6 13.9
2020-Jan-22 14:08 192 0 gusting 8 13.9
2020-Jan-22 14:03 157 0 gusting 8 13.9
2020-Jan-22 13:58 042 0 gusting 2 13.9
2020-Jan-22 13:53 282 13.9
2020-Jan-22 13:48 341 13.3
2020-Jan-22 13:43 214 13.3
2020-Jan-22 13:38 199 13.3
2020-Jan-22 13:33 324 0 gusting 2 13.3
2020-Jan-22 13:28 100 0 gusting 1 13.3
2020-Jan-22 13:23 059 0 gusting 1 12.8
2020-Jan-22 13:18 054 12.8
2020-Jan-22 13:13 315 0 gusting 1 12.2
2020-Jan-22 13:08 293 12.2
2020-Jan-22 13:03 293 12.2
2020-Jan-22 12:58 038 12.8
2020-Jan-22 12:53 042 12.2
2020-Jan-22 12:48 077 12.2
2020-Jan-22 12:43 284 12.2
2020-Jan-22 12:38 284 12.2
2020-Jan-22 12:33 007 11.7
2020-Jan-22 12:28 305 11.1
2020-Jan-22 12:23 339 0 gusting 2 11.1
2020-Jan-22 12:18 301 1 gusting 2 11.1
2020-Jan-22 12:13 357 0 gusting 2 11.1
2020-Jan-22 12:08 319 11.1
2020-Jan-22 12:03 341 1 gusting 4 11.1
2020-Jan-22 11:58 259 1 gusting 5 11.7
2020-Jan-22 11:53 301 12.2
2020-Jan-22 11:48 175 12.2
2020-Jan-22 11:43 166 12.8
2020-Jan-22 11:38 122 0 gusting 4 12.2
2020-Jan-22 11:33 032 12.2
2020-Jan-22 11:28 032 12.2
2020-Jan-22 11:23 018 0 gusting 2 12.2
2020-Jan-22 11:18 198 0 gusting 4 12.2
2020-Jan-22 11:13 163 2 gusting 6 11.7
2020-Jan-22 11:08 203 1 gusting 6 11.1
2020-Jan-22 11:03 281 0 gusting 2 11.1
2020-Jan-22 10:58 249 0 gusting 5 11.1
2020-Jan-22 10:53 250 10.6
2020-Jan-22 10:48 351 10.6
2020-Jan-22 10:43 014 0 gusting 2 10.0
2020-Jan-22 10:38 022 1 gusting 6 10.0
2020-Jan-22 10:33 019 1 gusting 4 10.0
2020-Jan-22 10:28 014 1 gusting 4 10.0
2020-Jan-22 10:23 042 0 gusting 5 10.0
2020-Jan-22 10:18 059 0 gusting 4 10.0
2020-Jan-22 10:13 022 1 gusting 5 10.0
2020-Jan-22 10:08 080 0 gusting 2 10.0
2020-Jan-22 10:03 176 0 gusting 6 10.6
2020-Jan-22 09:58 025 3 gusting 10 10.6
2020-Jan-22 09:53 055 0 gusting 2 11.1
2020-Jan-22 09:48 046 2 gusting 7 11.1
2020-Jan-22 09:43 031 0 gusting 2 11.1
2020-Jan-22 09:38 032 0 gusting 2 11.1
2020-Jan-22 09:33 050 1 gusting 5 11.7
2020-Jan-22 09:28 001 1 gusting 4 11.1
2020-Jan-22 09:23 348 0 gusting 4 11.1
2020-Jan-22 09:18 009 10.6
2020-Jan-22 09:13 063 1 gusting 4 10.6
2020-Jan-22 09:08 232 0 gusting 2 10.6
2020-Jan-22 09:03 064 0 gusting 2 10.0
2020-Jan-22 08:58 282 0 gusting 2 10.0
2020-Jan-22 08:53 208 10.0
2020-Jan-22 08:48 189 9.4
2020-Jan-22 08:43 191 0 gusting 2 9.4
2020-Jan-22 08:38 064 9.4
2020-Jan-22 08:33 039 0 gusting 5 9.4
2020-Jan-22 08:28 356 0 gusting 2 9.4
2020-Jan-22 08:23 332 0 gusting 1 9.4
2020-Jan-22 08:18 251 0 gusting 2 9.4
2020-Jan-22 08:13 187 9.4
2020-Jan-22 08:08 176 0 gusting 2 9.4
2020-Jan-22 08:03 228 0 gusting 1 9.4
2020-Jan-22 07:58 148 9.4
2020-Jan-22 07:53 356 0 gusting 5 9.4
2020-Jan-22 07:48 007 2 gusting 6 9.4
2020-Jan-22 07:43 008 1 gusting 5 9.4
2020-Jan-22 07:38 9.4
2020-Jan-22 07:33 008 2 gusting 6 9.4
2020-Jan-22 07:28 003 1 gusting 7 9.4
2020-Jan-22 07:23 352 1 gusting 2 9.4
2020-Jan-22 07:18 006 2 gusting 6 9.4
2020-Jan-22 07:13 025 2 gusting 6 9.4
2020-Jan-22 07:08 323 1 gusting 4 9.4
2020-Jan-22 07:03 003 2 gusting 6 9.4
2020-Jan-22 06:58 356 9.4
2020-Jan-22 06:53 345 1 gusting 6 9.4
2020-Jan-22 06:48 021 0 gusting 5 9.4
2020-Jan-22 06:43 033 0 gusting 2 9.4
2020-Jan-22 06:38 012 2 gusting 5 8.9
2020-Jan-22 06:33 349 0 gusting 7 8.9
2020-Jan-22 06:28 338 0 gusting 7 8.9
2020-Jan-22 06:23 347 1 gusting 6 8.9
2020-Jan-22 06:18 352 2 gusting 6 8.9
2020-Jan-22 06:13 8.9
2020-Jan-22 06:08 315 1 gusting 2 8.9
2020-Jan-22 06:03 343 1 gusting 4 8.9
2020-Jan-22 05:58 334 1 gusting 5 9.4
2020-Jan-22 01:28 025 0 gusting 2 10.0
2020-Jan-22 01:23 028 0 gusting 4 10.0
2020-Jan-22 01:18 034 0 gusting 5 10.0
2020-Jan-22 01:13 027 1 gusting 5 10.0
2020-Jan-22 01:08 007 2 gusting 6 10.0
2020-Jan-22 01:03 016 4 gusting 11 10.0
2020-Jan-22 00:58 002 1 gusting 5 10.0
2020-Jan-22 00:53 346 1 gusting 4 10.0
2020-Jan-22 00:48 344 1 gusting 4 10.0
2020-Jan-22 00:43 030 3 gusting 7 10.0
2020-Jan-22 00:38 008 6 gusting 12 10.0
2020-Jan-22 00:33 026 3 gusting 6 10.0
2020-Jan-22 00:28 355 5 gusting 10 10.0
2020-Jan-22 00:23 025 4 gusting 8 10.0
2020-Jan-22 00:18 030 2 gusting 6 10.0
2020-Jan-22 00:13 024 2 gusting 7 10.0
2020-Jan-22 00:08 020 4 gusting 10 9.4
2020-Jan-22 00:03 030 4 gusting 7 9.4
2020-Jan-21 23:58 033 1 gusting 2 9.4
2020-Jan-21 23:53 009 9.4
2020-Jan-21 23:48 009 0 gusting 2 9.4
2020-Jan-21 23:43 030 1 gusting 4 9.4
2020-Jan-21 23:38 004 2 gusting 5 9.4
2020-Jan-21 23:33 026 1 gusting 5 9.4
2020-Jan-21 23:28 026 2 gusting 4 9.4
2020-Jan-21 23:23 320 9.4
2020-Jan-21 23:18 314 9.4
2020-Jan-21 23:13 348 1 gusting 2 9.4
2020-Jan-21 23:08 227 0 gusting 2 9.4
2020-Jan-21 23:03 241 0 gusting 5 10.0
2020-Jan-21 22:58 323 1 gusting 10 10.0
2020-Jan-21 22:53 020 5 gusting 10 10.0
2020-Jan-21 22:48 023 5 gusting 10 10.6
2020-Jan-21 22:43 019 5 gusting 12 10.6
2020-Jan-21 22:38 025 4 gusting 8 10.6
2020-Jan-21 22:33 029 4 gusting 10 10.6
2020-Jan-21 22:28 020 4 gusting 15 10.6
2020-Jan-21 22:23 134 1 gusting 8 10.6
2020-Jan-21 22:18 055 1 gusting 5 10.6
2020-Jan-21 22:13 191 1 gusting 15 10.6
2020-Jan-21 22:08 037 2 gusting 5 10.6
2020-Jan-21 22:03 092 2 gusting 7 10.6
2020-Jan-21 21:58 037 4 gusting 12 10.6
2020-Jan-21 21:53 029 4 gusting 13 10.6
2020-Jan-21 21:48 003 6 gusting 13 10.6
2020-Jan-21 21:43 020 3 gusting 10 10.6
2020-Jan-21 21:38 109 2 gusting 11 11.1
2020-Jan-21 21:33 036 5 gusting 10 11.1
2020-Jan-21 21:28 023 5 gusting 14 10.6
2020-Jan-21 21:23 169 2 gusting 6 10.6
2020-Jan-21 21:18 017 2 gusting 14 11.1
2020-Jan-21 21:13 014 2 gusting 11 11.1
2020-Jan-21 21:08 067 5 gusting 19 11.1
2020-Jan-21 21:03 036 7 gusting 17 11.1
2020-Jan-21 20:58 042 5 gusting 17 11.1
2020-Jan-21 20:53 027 4 gusting 11 11.1
2020-Jan-21 20:48 086 4 gusting 13 11.1
2020-Jan-21 20:43 046 4 gusting 14 11.1
2020-Jan-21 20:38 071 6 gusting 18 11.1
2020-Jan-21 20:33 014 4 gusting 12 11.1
2020-Jan-21 20:28 047 2 gusting 10 11.1
2020-Jan-21 20:23 018 4 gusting 12 11.1
2020-Jan-21 20:18 304 1 gusting 11 11.1
2020-Jan-21 20:13 070 1 gusting 12 11.1
2020-Jan-21 20:08 038 3 gusting 13 11.1
2020-Jan-21 20:03 016 4 gusting 11 11.1
2020-Jan-21 19:58 031 2 gusting 15 11.1
2020-Jan-21 19:53 350 2 gusting 13 11.1
2020-Jan-21 19:48 052 5 gusting 13 11.1
2020-Jan-21 19:43 044 1 gusting 12 11.1
2020-Jan-21 19:38 042 4 gusting 10 11.7
2020-Jan-21 19:33 057 5 gusting 15 11.1
2020-Jan-21 19:28 046 3 gusting 11 11.1
2020-Jan-21 19:23 091 4 gusting 14 11.1
2020-Jan-21 19:18 040 3 gusting 17 11.1
2020-Jan-21 19:13 062 6 gusting 17 11.1
2020-Jan-21 19:08 036 6 gusting 12 11.1
2020-Jan-21 19:03 110 6 gusting 17 11.1
2020-Jan-21 18:58 040 4 gusting 13 11.1
2020-Jan-21 18:53 022 6 gusting 12 11.1
2020-Jan-21 18:48 023 4 gusting 22 11.1
2020-Jan-21 18:43 201 4 gusting 13 11.1
2020-Jan-21 18:38 034 6 gusting 15 11.1
2020-Jan-21 18:33 035 6 gusting 15 11.1
2020-Jan-21 18:28 013 4 gusting 17 11.1
2020-Jan-21 18:23 032 5 gusting 12 11.1
2020-Jan-21 18:18 074 6 gusting 21 11.7
2020-Jan-21 18:13 314 4 gusting 14 11.7
2020-Jan-21 18:08 044 7 gusting 17 11.7
2020-Jan-21 18:03 032 4 gusting 15 11.7
2020-Jan-21 17:58 101 5 gusting 18 11.7
2020-Jan-21 17:53 071 6 gusting 15 11.7
2020-Jan-21 17:48 016 10 gusting 21 11.7
2020-Jan-21 17:43 064 6 gusting 18 11.7
2020-Jan-21 17:38 043 6 gusting 13 11.7
2020-Jan-21 17:33 109 4 gusting 15 11.7
2020-Jan-21 17:28 088 5 gusting 15 11.7
2020-Jan-21 17:23 036 6 gusting 17 11.7
2020-Jan-21 17:18 052 4 gusting 18 11.7
2020-Jan-21 17:13 023 5 gusting 18 11.7
2020-Jan-21 17:08 099 5 gusting 18 11.7
2020-Jan-21 17:03 017 9 gusting 21 11.1
2020-Jan-21 16:58 020 4 gusting 10 11.1
2020-Jan-21 16:53 036 4 gusting 13 11.1
2020-Jan-21 16:48 083 2 gusting 13 11.1
2020-Jan-21 16:43 158 4 gusting 12 11.1
2020-Jan-21 16:38 049 6 gusting 12 11.1
2020-Jan-21 16:33 036 4 gusting 12 11.1
2020-Jan-21 16:28 037 5 gusting 13 11.1
2020-Jan-21 16:23 068 5 gusting 13 11.1
2020-Jan-21 16:18 017 8 gusting 17 11.1
2020-Jan-21 16:13 026 4 gusting 13 11.1
2020-Jan-21 16:08 191 2 gusting 18 11.1
2020-Jan-21 16:03 032 5 gusting 14 11.1
2020-Jan-21 15:58 029 7 gusting 19 11.1
2020-Jan-21 15:53 056 1 gusting 10 11.1
2020-Jan-21 15:48 155 1 gusting 14 11.1
2020-Jan-21 15:43 007 3 gusting 11 11.1
2020-Jan-21 15:38 059 7 gusting 17 11.1
2020-Jan-21 15:33 034 4 gusting 17 11.1
2020-Jan-21 15:28 113 5 gusting 12 11.1
2020-Jan-21 15:23 040 5 gusting 13 11.1
2020-Jan-21 15:18 022 3 gusting 19 11.1
2020-Jan-21 15:13 072 1 gusting 20 11.1
2020-Jan-21 15:08 098 4 gusting 13 11.1
2020-Jan-21 15:03 046 5 gusting 12 11.1
2020-Jan-21 14:58 038 4 gusting 8 11.1
2020-Jan-21 14:53 008 5 gusting 13 11.1
2020-Jan-21 14:48 082 4 gusting 10 11.1
2020-Jan-21 14:43 076 4 gusting 13 11.1
2020-Jan-21 14:38 056 2 gusting 14 11.1
2020-Jan-21 14:33 027 4 gusting 11 11.1
2020-Jan-21 14:28 037 5 gusting 13 10.6
2020-Jan-21 14:23 295 4 gusting 14 10.6
2020-Jan-21 14:18 020 6 gusting 13 10.6
2020-Jan-21 14:13 030 2 gusting 10 10.6
2020-Jan-21 14:08 009 1 gusting 8 10.6
2020-Jan-21 14:03 023 5 gusting 13 10.6
2020-Jan-21 13:58 088 3 gusting 13 10.6
2020-Jan-21 13:53 029 2 gusting 18 10.6
2020-Jan-21 13:48 333 3 gusting 8 10.6
2020-Jan-21 13:43 086 1 gusting 10 10.6
2020-Jan-21 13:38 087 5 gusting 19 10.6
2020-Jan-21 13:33 035 8 gusting 18 10.6
2020-Jan-21 13:28 066 1 gusting 8 10.6
2020-Jan-21 13:23 062 2 gusting 10 10.6
2020-Jan-21 13:18 306 2 gusting 12 10.6
2020-Jan-21 13:13 030 3 gusting 14 10.6
2020-Jan-21 13:08 194 1 gusting 6 10.6
2020-Jan-21 13:03 334 3 gusting 12 10.6
2020-Jan-21 12:58 122 2 gusting 6 10.6
2020-Jan-21 12:53 304 1 gusting 8 10.6
2020-Jan-21 12:48 096 0 gusting 7 10.6
2020-Jan-21 12:43 030 2 gusting 12 10.6
2020-Jan-21 12:38 244 4 gusting 11 10.6
2020-Jan-21 12:28 043 5 gusting 14 10.6
2020-Jan-21 12:23 024 5 gusting 10 10.6
2020-Jan-21 12:18 087 3 gusting 10 10.6
2020-Jan-21 12:13 053 2 gusting 10 10.6
2020-Jan-21 12:08 031 6 gusting 18 10.6
2020-Jan-21 12:03 008 4 gusting 10 10.6
2020-Jan-21 11:58 021 2 gusting 10 10.6
2020-Jan-21 11:53 143 4 gusting 12 10.6
2020-Jan-21 11:48 028 5 gusting 12 10.6
2020-Jan-21 11:43 041 5 gusting 11 10.6
2020-Jan-21 11:38 034 5 gusting 13 10.6
2020-Jan-21 11:33 014 3 gusting 13 10.6
2020-Jan-21 11:28 178 2 gusting 11 10.6
2020-Jan-21 11:23 056 3 gusting 10 10.6
2020-Jan-21 11:18 032 6 gusting 14 10.6
2020-Jan-21 11:13 037 4 gusting 13 10.6
2020-Jan-21 11:08 019 4 gusting 11 10.6
2020-Jan-21 11:03 043 4 gusting 11 10.6
2020-Jan-21 10:58 075 3 gusting 12 10.6
2020-Jan-21 10:53 028 5 gusting 13 10.6
2020-Jan-21 10:48 144 3 gusting 12 10.6
2020-Jan-21 10:43 050 6 gusting 17 10.6
2020-Jan-21 10:38 162 4 gusting 13 10.6
2020-Jan-21 10:33 032 4 gusting 17 10.6
2020-Jan-21 10:28 033 4 gusting 12 10.6
2020-Jan-21 10:23 043 6 gusting 14 10.6
2020-Jan-21 10:18 034 4 gusting 14 10.6
2020-Jan-21 10:13 037 5 gusting 17 10.6
2020-Jan-21 10:08 034 5 gusting 13 10.6
2020-Jan-21 10:03 038 4 gusting 12 10.6
2020-Jan-21 09:58 009 5 gusting 11 10.6
2020-Jan-21 09:53 044 5 gusting 12 10.6
2020-Jan-21 09:48 020 4 gusting 10 10.6
2020-Jan-21 09:43 050 5 gusting 13 10.6
2020-Jan-21 09:38 023 6 gusting 17 10.6
2020-Jan-21 09:33 024 4 gusting 17 10.6
2020-Jan-21 09:28 035 6 gusting 17 10.0
2020-Jan-21 09:23 080 5 gusting 14 10.0
2020-Jan-21 09:18 011 3 gusting 8 10.0
2020-Jan-21 09:13 048 6 gusting 12 10.0
2020-Jan-21 09:08 096 3 gusting 13 10.0
2020-Jan-21 09:03 030 7 gusting 14 10.0
2020-Jan-21 08:58 055 0 gusting 10 10.0
2020-Jan-21 08:53 003 5 gusting 11 10.0
2020-Jan-21 08:48 012 2 gusting 6 10.0
2020-Jan-21 08:43 048 1 gusting 5 10.0
2020-Jan-21 08:38 018 1 gusting 8 10.0
2020-Jan-21 08:33 037 4 gusting 11 10.0
2020-Jan-21 08:28 010 3 gusting 7 10.0
2020-Jan-21 08:23 023 2 gusting 8 10.0
2020-Jan-21 08:18 018 2 gusting 12 10.0
2020-Jan-21 08:13 051 3 gusting 11 10.0
2020-Jan-21 08:08 027 3 gusting 10 10.0
2020-Jan-21 08:03 032 2 gusting 10 9.4
2020-Jan-21 07:58 013 2 gusting 7 9.4
2020-Jan-21 07:53 020 4 gusting 7 9.4
2020-Jan-21 07:48 030 2 gusting 8 9.4
2020-Jan-21 07:43 010 4 gusting 14 9.4
2020-Jan-21 07:38 034 3 gusting 6 9.4
2020-Jan-21 07:33 029 4 gusting 6 9.4
2020-Jan-21 07:28 009 3 gusting 6 9.4
2020-Jan-21 07:23 033 4 gusting 10 10.0
2020-Jan-21 07:18 037 5 gusting 11 9.4
2020-Jan-21 07:13 033 2 gusting 12 9.4
2020-Jan-21 07:08 020 4 gusting 11 9.4
2020-Jan-21 07:03 027 6 gusting 12 10.0
2020-Jan-21 06:58 034 2 gusting 10 10.0
2020-Jan-21 06:53 028 5 gusting 10 10.0
2020-Jan-21 06:48 014 2 gusting 8 10.0
2020-Jan-21 06:43 023 3 gusting 6 10.0
2020-Jan-21 06:38 027 2 gusting 10 9.4
2020-Jan-21 06:33 004 2 gusting 13 9.4
2020-Jan-21 06:28 030 3 gusting 13 9.4
2020-Jan-21 06:23 034 1 gusting 13 9.4
2020-Jan-21 06:18 351 3 gusting 11 9.4
2020-Jan-21 06:13 024 4 gusting 6 8.9
2020-Jan-21 06:08 013 1 gusting 7 8.9
2020-Jan-21 06:03 025 1 gusting 12 8.9
2020-Jan-21 05:58 030 1 gusting 2 8.9
2020-Jan-21 05:53 013 3 gusting 12 8.9
2020-Jan-21 05:48 007 2 gusting 8 8.9
2020-Jan-21 05:43 026 4 gusting 10 8.3
2020-Jan-21 05:38 022 2 gusting 8 7.8
2020-Jan-21 05:33 012 2 gusting 10 7.8
2020-Jan-21 05:28 348 4 gusting 10 7.8
2020-Jan-21 05:23 002 2 gusting 6 7.2
2020-Jan-21 05:18 012 1 gusting 8 7.2
2020-Jan-21 05:13 002 1 gusting 6 6.7
2020-Jan-21 05:08 004 2 gusting 6 6.7
2020-Jan-21 05:03 018 4 gusting 7 6.7
2020-Jan-21 04:58 358 2 gusting 6 7.2
2020-Jan-21 04:53 005 2 gusting 6 7.2
2020-Jan-21 04:48 012 2 gusting 7 7.2
2020-Jan-21 04:43 024 2 gusting 8 7.2
2020-Jan-21 04:38 019 2 gusting 6 6.7
2020-Jan-21 04:33 011 2 gusting 6 6.7
2020-Jan-21 04:28 009 4 gusting 10 6.7
2020-Jan-21 04:23 007 4 gusting 8 6.7
2020-Jan-21 04:18 359 4 gusting 7 6.7
2020-Jan-21 04:13 017 4 gusting 7 6.7
2020-Jan-21 04:08 023 4 gusting 10 6.7
2020-Jan-21 04:03 026 3 gusting 7 6.7
2020-Jan-21 03:58 025 4 gusting 10 7.2
2020-Jan-21 03:53 030 5 gusting 10 7.2
2020-Jan-21 03:48 020 3 gusting 6 7.2
2020-Jan-21 03:43 020 1 gusting 11 7.2
2020-Jan-21 03:38 014 2 gusting 6 7.2
2020-Jan-21 03:33 355 3 gusting 6 7.2
2020-Jan-21 03:28 024 4 gusting 10 7.2
2020-Jan-21 03:23 001 3 gusting 8 6.7
2020-Jan-21 03:18 016 4 gusting 10 6.7
2020-Jan-21 03:13 010 4 gusting 11 6.7
2020-Jan-21 03:08 018 4 gusting 10 7.2
2020-Jan-21 03:03 002 4 gusting 10 6.7
2020-Jan-21 02:58 003 4 gusting 8 6.7
2020-Jan-21 02:53 004 5 gusting 10 6.7
2020-Jan-21 02:48 016 4 gusting 10 7.2
2020-Jan-21 02:43 004 2 gusting 10 7.2
2020-Jan-21 02:38 009 4 gusting 8 8.3
2020-Jan-21 02:33 003 3 gusting 7 8.3
2020-Jan-21 02:28 014 4 gusting 13 8.3
2020-Jan-21 02:23 016 2 gusting 10 8.3
2020-Jan-21 02:18 340 2 gusting 7 7.8
2020-Jan-21 02:13 024 4 gusting 10 8.3
2020-Jan-21 02:08 350 4 gusting 8 8.3
2020-Jan-21 02:03 019 3 gusting 6 7.8
2020-Jan-21 01:58 020 4 gusting 12 8.3
2020-Jan-21 01:53 007 4 gusting 8 8.3
2020-Jan-21 01:48 011 5 gusting 10 8.3
2020-Jan-21 01:43 017 3 gusting 7 8.3
2020-Jan-21 01:38 319 1 gusting 8 8.3
2020-Jan-21 01:33 016 6 gusting 13 8.3
2020-Jan-21 01:28 003 3 gusting 7 8.3
2020-Jan-21 01:23 006 4 gusting 10 8.3
2020-Jan-21 01:18 058 3 gusting 8 8.3
2020-Jan-21 01:13 001 2 gusting 6 8.3
2020-Jan-21 01:08 019 5 gusting 10 8.3
2020-Jan-21 01:03 016 5 gusting 12 8.3
2020-Jan-21 00:58 008 4 gusting 10 8.3
2020-Jan-21 00:53 029 2 gusting 8 8.3
2020-Jan-21 00:48 043 1 gusting 10 8.3
2020-Jan-21 00:43 065 1 gusting 7 8.3
2020-Jan-21 00:38 333 2 gusting 8 8.3
2020-Jan-21 00:33 014 6 gusting 15 8.3
2020-Jan-21 00:28 036 4 gusting 11 8.3
2020-Jan-21 00:23 337 3 gusting 6 8.3
2020-Jan-21 00:18 019 6 gusting 11 8.3
2020-Jan-21 00:13 033 2 gusting 7 8.9
2020-Jan-21 00:08 002 4 gusting 10 8.9
2020-Jan-21 00:03 011 5 gusting 10 9.4
2020-Jan-20 23:58 016 4 gusting 10 9.4
2020-Jan-20 23:53 040 3 gusting 10 9.4
2020-Jan-20 23:48 029 2 gusting 12 9.4
2020-Jan-20 23:43 024 1 gusting 10 9.4
2020-Jan-20 23:38 025 5 gusting 13 9.4
2020-Jan-20 23:33 016 2 gusting 8 10.0
2020-Jan-20 23:28 007 6 gusting 13 10.0
2020-Jan-20 23:23 035 4 gusting 11 10.0
2020-Jan-20 23:18 037 2 gusting 11 10.0
2020-Jan-20 23:13 032 3 gusting 10 10.0
2020-Jan-20 23:08 012 4 gusting 17 10.0
2020-Jan-20 23:03 016 4 gusting 13 10.0
2020-Jan-20 22:58 024 5 gusting 15 9.4
2020-Jan-20 22:53 035 6 gusting 20 9.4
2020-Jan-20 22:48 016 5 gusting 14 9.4
2020-Jan-20 22:43 023 5 gusting 10 9.4
2020-Jan-20 22:38 009 1 gusting 13 9.4
2020-Jan-20 22:33 015 7 gusting 17 9.4
2020-Jan-20 22:28 030 6 gusting 12 9.4
2020-Jan-20 22:23 028 3 gusting 17 9.4
2020-Jan-20 22:18 146 2 gusting 8 9.4
2020-Jan-20 22:13 021 3 gusting 10 9.4
2020-Jan-20 22:08 055 4 gusting 10 9.4
2020-Jan-20 22:03 026 4 gusting 13 9.4
2020-Jan-20 21:58 006 5 gusting 10 9.4
2020-Jan-20 21:53 020 4 gusting 13 10.0
2020-Jan-20 21:48 008 2 gusting 10 10.0
2020-Jan-20 21:43 031 2 gusting 7 10.0
2020-Jan-20 21:38 108 4 gusting 10 10.0
2020-Jan-20 21:33 016 0 gusting 8 10.0
2020-Jan-20 21:28 031 4 gusting 10 10.0
2020-Jan-20 21:23 020 6 gusting 13 10.0
2020-Jan-20 21:18 018 1 gusting 6 9.4
2020-Jan-20 21:13 039 2 gusting 7 9.4
2020-Jan-20 21:08 005 2 gusting 8 9.4
2020-Jan-20 21:03 015 2 gusting 8 9.4
2020-Jan-20 20:58 029 2 gusting 6 9.4
2020-Jan-20 20:53 038 2 gusting 6 9.4
2020-Jan-20 20:48 029 2 gusting 7 9.4
2020-Jan-20 20:43 012 0 gusting 7 9.4
2020-Jan-20 20:38 033 2 gusting 12 9.4
2020-Jan-20 20:33 016 2 gusting 10 9.4
2020-Jan-20 20:28 006 3 gusting 10 9.4
2020-Jan-20 20:23 021 1 gusting 10 9.4
2020-Jan-20 20:18 034 2 gusting 8 9.4
2020-Jan-20 20:13 020 4 gusting 11 9.4
2020-Jan-20 20:08 021 4 gusting 13 9.4
2020-Jan-20 20:03 010 3 gusting 8 8.9
2020-Jan-20 19:58 014 3 gusting 12 8.9
2020-Jan-20 19:53 002 3 gusting 12 9.4
2020-Jan-20 19:48 030 2 gusting 6 9.4
2020-Jan-20 19:43 026 2 gusting 6 9.4
2020-Jan-20 19:38 021 1 gusting 8 9.4
2020-Jan-20 19:33 270 1 gusting 11 10.0
2020-Jan-20 19:28 015 3 gusting 10 10.0
2020-Jan-20 19:23 008 2 gusting 6 9.4
2020-Jan-20 19:18 020 3 gusting 7 9.4
2020-Jan-20 19:13 045 5 gusting 11 10.0
2020-Jan-20 19:08 002 6 gusting 11 10.0
2020-Jan-20 19:03 024 3 gusting 7 10.0
2020-Jan-20 18:58 031 7 gusting 14 10.0
2020-Jan-20 18:53 010 5 gusting 11 10.0
2020-Jan-20 18:48 019 5 gusting 11 10.0
2020-Jan-20 18:43 026 6 gusting 12 10.0
2020-Jan-20 18:38 026 6 gusting 17 10.0
2020-Jan-20 18:33 026 5 gusting 12 10.0
2020-Jan-20 18:28 020 5 gusting 11 10.0
2020-Jan-20 18:23 043 6 gusting 13 10.0
2020-Jan-20 18:18 017 6 gusting 17 10.0
2020-Jan-20 18:13 011 5 gusting 17 10.0
2020-Jan-20 18:08 005 6 gusting 17 10.0
2020-Jan-20 18:03 027 4 gusting 12 10.0
2020-Jan-20 17:58 023 5 gusting 12 10.0
2020-Jan-20 17:53 028 8 gusting 14 10.0
2020-Jan-20 17:48 026 4 gusting 14 10.0
2020-Jan-20 17:43 028 6 gusting 13 10.0
2020-Jan-20 17:38 012 6 gusting 18 10.0
2020-Jan-20 17:33 023 6 gusting 15 10.0
2020-Jan-20 17:28 019 6 gusting 13 10.0
2020-Jan-20 17:23 044 5 gusting 13 10.0
2020-Jan-20 17:18 024 3 gusting 10 10.0
2020-Jan-20 17:13 064 4 gusting 10 10.0
2020-Jan-20 17:08 015 5 gusting 13 10.0
2020-Jan-20 17:03 022 7 gusting 14 10.0
2020-Jan-20 16:58 033 6 gusting 11 10.0
2020-Jan-20 16:53 018 2 gusting 10 10.0
2020-Jan-20 16:48 030 4 gusting 10 10.0
2020-Jan-20 16:43 001 4 gusting 12 10.0
2020-Jan-20 16:38 014 4 gusting 13 10.0
2020-Jan-20 16:33 007 5 gusting 10 10.0
2020-Jan-20 16:28 020 4 gusting 8 10.0
2020-Jan-20 16:23 022 4 gusting 10 10.0
2020-Jan-20 16:18 029 5 gusting 11 10.0
2020-Jan-20 16:13 016 4 gusting 11 10.0
2020-Jan-20 16:08 016 6 gusting 14 10.0
2020-Jan-20 16:03 036 5 gusting 13 10.0
2020-Jan-20 15:58 029 5 gusting 13 10.0
2020-Jan-20 15:53 031 5 gusting 13 10.0
2020-Jan-20 15:48 028 7 gusting 13 10.6
2020-Jan-20 15:43 033 5 gusting 11 10.6
2020-Jan-20 15:38 044 6 gusting 13 10.6
2020-Jan-20 15:33 027 5 gusting 15 10.6
2020-Jan-20 15:28 027 8 gusting 18 10.6
2020-Jan-20 15:23 022 6 gusting 11 10.6
2020-Jan-20 15:18 017 5 gusting 10 10.6
2020-Jan-20 15:13 020 6 gusting 13 10.6
2020-Jan-20 15:08 026 5 gusting 13 10.6
2020-Jan-20 15:03 017 7 gusting 12 10.6